Terminal Aerodrome Forecast
Issued by NWS Charleston, WV

Current Version | Previous Version | Text Only | Print | Product List | Glossary Off
Versions: 1 2 3 4 5 6 7 8 9 10 11 12 13 14 15 16 17 18 19 20 21 22 23

810
FTUS41 KRLX 200903 AAA
TAFEKN
TAF AMD
KEKN 200903Z 2009/2106 00000KT P6SM OVC023
     FM201000 00000KT 2SM BR BKN013
     FM201300 00000KT P6SM BKN070
     FM201500 VRB02KT P6SM SCT250=

USA.gov is the U.S. government's official web portal to all federal, state and local government web resources and services.